createdAt,value
2023-05-08T00:01:43.498Z,2.50
2023-05-08T00:04:10.217Z,2.05
2023-05-08T00:06:37.169Z,2.30
2023-05-08T00:09:03.923Z,2.58
2023-05-08T00:11:30.464Z,2.75
2023-05-08T00:13:57.183Z,2.70
2023-05-08T00:16:24.060Z,2.58
2023-05-08T00:18:50.719Z,3.10
2023-05-08T00:21:17.620Z,2.58
2023-05-08T00:23:44.238Z,3.10
2023-05-08T00:26:10.857Z,2.75
2023-05-08T00:28:37.643Z,3.10
2023-05-08T00:31:04.211Z,2.40
2023-05-08T00:33:30.938Z,2.85
2023-05-08T00:36:01.527Z,2.95
2023-05-08T00:38:31.587Z,3.17
2023-05-08T00:40:58.809Z,3.08
2023-05-08T00:43:28.362Z,2.63
2023-05-08T00:46:02.246Z,3.40
2023-05-08T00:48:31.934Z,3.65
2023-05-08T00:50:59.064Z,3.88
2023-05-08T00:53:27.170Z,3.42
2023-05-08T00:55:54.532Z,3.15
2023-05-08T00:58:23.614Z,3.40
2023-05-08T01:00:54.274Z,3.45
2023-05-08T01:03:22.358Z,3.70
2023-05-08T01:05:49.327Z,3.17
2023-05-08T01:08:16.309Z,3.60
2023-05-08T01:11:03.460Z,3.60
2023-05-08T01:14:02.884Z,3.50
2023-05-08T01:16:42.299Z,3.42
2023-05-08T01:19:35.026Z,3.55
2023-05-08T01:22:39.915Z,3.03
2023-05-08T01:25:44.231Z,3.33
2023-05-08T01:28:32.340Z,3.58
2023-05-08T01:31:11.897Z,3.20
2023-05-08T01:33:50.570Z,3.53
2023-05-08T01:36:27.213Z,3.60
2023-05-08T01:39:12.244Z,3.50
2023-05-08T01:41:43.555Z,3.58
2023-05-08T01:44:17.433Z,3.60
2023-05-08T01:46:50.658Z,3.35
2023-05-08T01:49:38.747Z,3.38
2023-05-08T01:52:20.927Z,3.60
2023-05-08T01:55:01.856Z,3.22
2023-05-08T01:57:31.991Z,2.95
2023-05-08T02:00:01.518Z,3.70
2023-05-08T02:02:30.216Z,3.30
2023-05-08T02:04:58.298Z,2.92
2023-05-08T02:07:26.564Z,3.47
2023-05-08T02:09:54.696Z,3.63
2023-05-08T02:12:22.983Z,3.47
2023-05-08T02:14:53.021Z,3.00
2023-05-08T02:17:21.139Z,3.13
2023-05-08T02:19:49.561Z,3.15
2023-05-08T02:22:18.110Z,2.88
2023-05-08T02:24:46.212Z,3.38
2023-05-08T02:27:14.712Z,2.85
2023-05-08T02:29:42.640Z,2.92
2023-05-08T02:32:10.348Z,3.50
2023-05-08T02:34:40.998Z,2.88
2023-05-08T02:37:13.419Z,2.67
2023-05-08T02:39:42.590Z,2.80
2023-05-08T02:42:09.383Z,2.80
2023-05-08T02:44:36.235Z,3.00
2023-05-08T02:47:12.453Z,3.05
2023-05-08T02:49:52.114Z,3.53
2023-05-08T02:52:28.893Z,2.88
2023-05-08T02:55:04.733Z,2.88
2023-05-08T02:58:10.486Z,2.88
2023-05-08T03:00:49.143Z,3.00
2023-05-08T03:03:43.459Z,2.58
2023-05-08T03:06:15.489Z,3.30
2023-05-08T03:08:43.181Z,2.85
2023-05-08T03:11:14.871Z,3.00
2023-05-08T03:13:43.208Z,2.80
2023-05-08T03:16:15.106Z,2.60
2023-05-08T03:18:49.528Z,3.33
2023-05-08T03:21:19.586Z,3.20
2023-05-08T03:23:49.578Z,3.15
2023-05-08T03:26:19.790Z,2.90
2023-05-08T03:28:50.659Z,3.35
2023-05-08T03:31:21.570Z,3.42
2023-05-08T03:33:50.870Z,2.97
2023-05-08T03:36:18.249Z,3.28
2023-05-08T03:38:45.412Z,2.90
2023-05-08T03:41:13.217Z,3.22
2023-05-08T03:43:41.391Z,3.42
2023-05-08T03:46:10.357Z,3.30
2023-05-08T03:48:38.593Z,2.78
2023-05-08T03:51:06.139Z,3.20
2023-05-08T03:53:35.142Z,3.42
2023-05-08T03:56:03.251Z,3.63
2023-05-08T03:58:37.537Z,3.00
2023-05-08T04:01:12.052Z,2.63
2023-05-08T04:03:56.642Z,3.15
2023-05-08T04:06:42.110Z,3.60
2023-05-08T04:09:24.712Z,2.88
2023-05-08T04:12:14.942Z,3.75
2023-05-08T04:14:45.655Z,3.75
2023-05-08T04:17:16.049Z,3.50
2023-05-08T04:19:47.033Z,3.58
2023-05-08T04:22:15.300Z,3.75
2023-05-08T04:24:49.580Z,3.53
2023-05-08T04:27:17.057Z,3.85
2023-05-08T04:29:44.117Z,4.70
2023-05-08T04:32:11.897Z,4.15
2023-05-08T04:34:39.412Z,4.95
2023-05-08T04:37:07.931Z,4.25
2023-05-08T04:39:35.131Z,4.10
2023-05-08T04:42:03.764Z,5.00
2023-05-08T04:44:32.833Z,4.95
2023-05-08T04:46:59.493Z,4.80
2023-05-08T04:49:26.549Z,5.28
2023-05-08T04:51:53.106Z,6.13
2023-05-08T04:54:19.846Z,5.03
2023-05-08T04:56:46.490Z,6.13
2023-05-08T04:59:15.893Z,5.00
2023-05-08T05:01:42.968Z,5.07
2023-05-08T05:04:09.908Z,5.53
2023-05-08T05:06:36.578Z,5.53
2023-05-08T05:09:04.288Z,5.80
2023-05-08T05:11:31.415Z,5.65
2023-05-08T05:13:58.130Z,4.97
2023-05-08T05:16:25.165Z,5.40
2023-05-08T05:18:51.949Z,5.55
2023-05-08T05:21:19.315Z,5.50
2023-05-08T05:23:46.257Z,7.05
2023-05-08T05:26:12.814Z,5.72
2023-05-08T05:28:39.634Z,6.10
2023-05-08T05:31:07.100Z,5.70
2023-05-08T05:33:33.879Z,5.70
2023-05-08T05:36:00.785Z,5.95
2023-05-08T05:38:27.822Z,5.95
2023-05-08T05:40:54.989Z,5.47
2023-05-08T05:43:21.838Z,5.78
2023-05-08T05:45:48.490Z,6.60
2023-05-08T05:48:15.635Z,6.30
2023-05-08T05:50:42.458Z,6.00
2023-05-08T05:53:09.888Z,6.80
2023-05-08T05:55:36.816Z,6.50
2023-05-08T05:58:03.764Z,5.72
2023-05-08T06:00:31.474Z,6.22
2023-05-08T06:02:59.346Z,5.68
2023-05-08T06:05:26.258Z,5.88
2023-05-08T06:07:53.088Z,5.47
2023-05-08T06:10:20.099Z,5.70
2023-05-08T06:12:47.047Z,5.90
2023-05-08T06:15:15.144Z,5.80
2023-05-08T06:17:43.737Z,6.55
2023-05-08T06:20:10.776Z,6.03
2023-05-08T06:22:40.118Z,6.15
2023-05-08T06:25:07.651Z,5.88
2023-05-08T06:27:34.797Z,6.10
2023-05-08T06:30:01.860Z,6.40
2023-05-08T06:32:28.785Z,6.18
2023-05-08T06:34:55.312Z,6.78
2023-05-08T06:37:21.861Z,6.13
2023-05-08T06:39:50.550Z,6.47
2023-05-08T06:42:21.403Z,5.85
2023-05-08T06:44:48.220Z,6.15
2023-05-08T06:47:14.745Z,6.95
2023-05-08T06:49:41.621Z,6.45
2023-05-08T06:52:08.140Z,6.03
2023-05-08T06:54:34.668Z,6.15
2023-05-08T06:57:01.282Z,6.68
2023-05-08T06:59:27.856Z,6.32
2023-05-08T07:01:54.584Z,5.22
2023-05-08T07:04:21.618Z,6.60
2023-05-08T07:06:48.226Z,6.38
2023-05-08T07:09:16.131Z,6.70
2023-05-08T07:11:42.862Z,6.97
2023-05-08T07:14:09.400Z,7.22
2023-05-08T07:16:36.427Z,5.82
2023-05-08T07:19:03.510Z,6.15
2023-05-08T07:21:30.700Z,5.43
2023-05-08T07:23:57.290Z,5.78
2023-05-08T07:26:23.877Z,6.28
2023-05-08T07:28:50.929Z,6.63
2023-05-08T07:31:17.548Z,5.88
2023-05-08T07:33:44.247Z,6.05
2023-05-08T07:36:11.279Z,6.07
2023-05-08T07:38:38.019Z,4.82
2023-05-08T07:41:05.436Z,6.32
2023-05-08T07:43:32.328Z,6.03
2023-05-08T07:45:59.068Z,6.32
2023-05-08T07:48:25.963Z,6.22
2023-05-08T07:50:52.521Z,5.85
2023-05-08T07:53:19.341Z,6.25
2023-05-08T07:55:45.933Z,6.88
2023-05-08T07:58:12.488Z,6.03
2023-05-08T08:00:39.649Z,6.05
2023-05-08T08:03:07.217Z,6.45
2023-05-08T08:05:33.909Z,6.32
2023-05-08T08:08:00.427Z,6.60
2023-05-08T08:10:27.209Z,6.70
2023-05-08T08:12:53.960Z,7.38
2023-05-08T08:15:20.727Z,6.35
2023-05-08T08:17:47.315Z,6.20
2023-05-08T08:20:14.352Z,6.55
2023-05-08T08:22:41.113Z,6.28
2023-05-08T08:25:08.279Z,7.00
2023-05-08T08:27:34.947Z,6.35
2023-05-08T08:30:16.308Z,6.55
2023-05-08T08:32:44.635Z,6.82
2023-05-08T08:35:12.076Z,6.45
2023-05-08T08:37:38.929Z,6.95
2023-05-08T08:40:06.407Z,6.50
2023-05-08T08:42:32.948Z,7.13
2023-05-08T08:45:01.148Z,7.15
2023-05-08T08:47:29.911Z,6.82
2023-05-08T08:50:02.069Z,7.10
2023-05-08T08:52:37.665Z,7.32
2023-05-08T08:55:08.325Z,8.23
2023-05-08T08:57:37.157Z,7.07
2023-05-08T09:00:09.045Z,7.85
2023-05-08T09:02:36.171Z,7.30
2023-05-08T09:05:03.433Z,7.80
2023-05-08T09:07:30.444Z,7.18
2023-05-08T09:09:57.430Z,7.40
2023-05-08T09:12:24.176Z,7.88
2023-05-08T09:14:51.355Z,7.53
2023-05-08T09:17:17.928Z,7.63
2023-05-08T09:19:44.971Z,7.97
2023-05-08T09:22:11.829Z,7.35
2023-05-08T09:24:56.195Z,6.90
2023-05-08T09:27:28.186Z,7.15
2023-05-08T09:30:06.685Z,7.60
2023-05-08T09:32:35.100Z,7.80
2023-05-08T09:35:02.110Z,6.63
2023-05-08T09:37:29.353Z,6.55
2023-05-08T09:40:13.498Z,7.25
2023-05-08T09:42:40.366Z,7.25
2023-05-08T09:45:07.587Z,6.80
2023-05-08T09:47:37.379Z,7.05
2023-05-08T09:50:11.321Z,7.95
2023-05-08T09:52:45.815Z,6.80
2023-05-08T09:55:12.479Z,6.55
2023-05-08T09:57:53.163Z,7.03
2023-05-08T10:00:20.614Z,7.90
2023-05-08T10:03:02.348Z,7.18
2023-05-08T10:07:59.614Z,6.50
2023-05-08T10:10:28.048Z,6.90
2023-05-08T10:12:56.329Z,6.75
2023-05-08T10:15:31.336Z,7.65
2023-05-08T10:18:06.867Z,6.28
2023-05-08T10:20:35.703Z,7.32
2023-05-08T10:23:04.097Z,7.13
2023-05-08T10:25:35.577Z,7.38
2023-05-08T10:28:17.509Z,7.75
2023-05-08T10:30:48.510Z,8.55
2023-05-08T10:33:20.228Z,8.05
2023-05-08T10:35:48.066Z,7.70
2023-05-08T10:38:15.313Z,7.68
2023-05-08T10:40:42.274Z,7.65
2023-05-08T10:43:09.692Z,7.72
2023-05-08T10:45:37.153Z,8.80
2023-05-08T10:48:15.096Z,7.65
2023-05-08T10:51:01.134Z,9.05
2023-05-08T10:53:41.078Z,8.88
2023-05-08T10:56:08.015Z,8.52
2023-05-08T10:58:37.309Z,7.20
2023-05-08T11:01:07.907Z,7.47
2023-05-08T11:03:43.797Z,7.10
2023-05-08T11:06:11.589Z,7.55
2023-05-08T11:08:51.774Z,7.80
2023-05-08T11:11:33.852Z,7.75
2023-05-08T11:14:14.254Z,7.80
2023-05-08T11:16:56.608Z,8.20
2023-05-08T11:19:25.033Z,7.75
2023-05-08T11:22:20.766Z,7.65
2023-05-08T11:24:49.142Z,7.70
2023-05-08T11:27:16.305Z,8.23
2023-05-08T11:29:44.874Z,8.13
2023-05-08T11:32:11.860Z,8.32
2023-05-08T11:34:44.408Z,9.35
2023-05-08T11:37:17.313Z,8.18
2023-05-08T11:39:44.338Z,9.35
2023-05-08T11:42:29.167Z,7.50
2023-05-08T11:45:14.335Z,8.75
2023-05-08T11:47:45.274Z,7.72
2023-05-08T11:50:13.757Z,8.85
2023-05-08T11:52:42.085Z,7.65
2023-05-08T11:55:10.619Z,8.73
2023-05-08T11:57:37.857Z,8.52
2023-05-08T12:00:09.587Z,7.47
2023-05-08T12:02:42.738Z,8.00
2023-05-08T12:05:11.025Z,7.57
2023-05-08T12:07:47.909Z,7.05
2023-05-08T12:10:16.630Z,8.98
2023-05-08T12:12:44.526Z,8.52
2023-05-08T12:15:13.602Z,7.60
2023-05-08T12:17:41.103Z,8.48
2023-05-08T12:20:12.245Z,8.68
2023-05-08T12:22:40.739Z,8.80
2023-05-08T12:25:13.079Z,8.65
2023-05-08T12:27:39.918Z,9.13
2023-05-08T12:30:12.698Z,8.38
2023-05-08T12:32:43.759Z,8.75
2023-05-08T12:35:12.246Z,8.68
2023-05-08T12:37:39.718Z,8.77
2023-05-08T12:40:07.565Z,8.77
2023-05-08T12:42:48.317Z,9.02
2023-05-08T12:45:23.207Z,9.00
2023-05-08T12:47:51.602Z,9.45
2023-05-08T12:50:21.237Z,9.75
2023-05-08T12:52:49.967Z,9.45
2023-05-08T12:55:29.482Z,8.30
2023-05-08T12:58:01.461Z,9.55
2023-05-08T13:00:39.396Z,9.32
2023-05-08T13:03:07.720Z,9.38
2023-05-08T13:05:36.855Z,8.63
2023-05-08T13:08:11.460Z,9.20
2023-05-08T13:10:55.246Z,8.88
2023-05-08T13:13:26.676Z,9.15
2023-05-08T13:15:54.968Z,8.82
2023-05-08T13:18:25.066Z,8.13
2023-05-08T13:20:51.794Z,8.60
2023-05-08T13:23:18.509Z,9.60
2023-05-08T13:25:45.188Z,8.45
2023-05-08T13:28:12.140Z,9.52
2023-05-08T13:30:39.182Z,10.32
2023-05-08T13:33:06.386Z,8.48
2023-05-08T13:35:33.957Z,8.75
2023-05-08T13:38:00.591Z,9.05
2023-05-08T13:40:27.802Z,9.82
2023-05-08T13:42:54.381Z,8.13
2023-05-08T13:45:21.095Z,7.85
2023-05-08T13:47:49.389Z,8.73
2023-05-08T13:50:18.338Z,7.97
2023-05-08T13:52:44.917Z,8.85
2023-05-08T13:55:14.093Z,7.22
2023-05-08T13:57:41.440Z,6.10
2023-05-08T14:00:09.328Z,6.13
2023-05-08T14:02:37.517Z,7.10
2023-05-08T14:05:05.364Z,7.22
2023-05-08T14:07:32.227Z,6.97
2023-05-08T14:09:58.847Z,7.45
2023-05-08T14:12:25.427Z,6.70
2023-05-08T14:14:51.968Z,7.05
2023-05-08T14:17:18.692Z,6.53
2023-05-08T14:19:46.224Z,7.88
2023-05-08T14:22:12.873Z,6.60
2023-05-08T14:24:39.970Z,6.50
2023-05-08T14:27:06.669Z,6.72
2023-05-08T14:29:34.311Z,6.80
2023-05-08T14:32:01.228Z,6.32
2023-05-08T14:34:27.974Z,7.22
2023-05-08T14:36:54.865Z,7.38
2023-05-08T14:39:21.483Z,7.15
2023-05-08T14:42:02.341Z,7.45
2023-05-08T14:44:34.879Z,7.18
2023-05-08T14:47:01.521Z,5.93
2023-05-08T14:49:37.573Z,6.57
2023-05-08T14:52:05.861Z,6.80
2023-05-08T14:54:32.569Z,6.97
2023-05-08T14:56:59.863Z,7.70
2023-05-08T14:59:26.500Z,6.93
2023-05-08T15:01:53.131Z,7.38
2023-05-08T15:04:19.821Z,7.53
2023-05-08T15:06:46.720Z,7.55
2023-05-08T15:09:13.459Z,7.20
2023-05-08T15:11:40.087Z,7.95
2023-05-08T15:14:06.659Z,8.77
2023-05-08T15:16:33.295Z,9.30
2023-05-08T15:19:00.068Z,10.20
2023-05-08T15:21:27.539Z,9.75
2023-05-08T15:23:55.545Z,9.48
2023-05-08T15:26:22.923Z,9.80
2023-05-08T15:28:49.804Z,9.40
2023-05-08T15:31:17.194Z,9.82
2023-05-08T15:33:45.220Z,9.57
2023-05-08T15:36:13.566Z,9.98
2023-05-08T15:38:41.056Z,8.82
2023-05-08T15:41:07.879Z,10.15
2023-05-08T15:43:34.436Z,8.93
2023-05-08T15:46:01.176Z,9.60
2023-05-08T15:48:27.891Z,10.77
2023-05-08T15:50:54.563Z,11.07
2023-05-08T15:53:21.156Z,11.65
2023-05-08T15:55:47.738Z,10.23
2023-05-08T15:58:14.524Z,11.07
2023-05-08T16:00:45.364Z,10.75
2023-05-08T16:03:12.396Z,11.23
2023-05-08T16:05:39.636Z,10.57
2023-05-08T16:08:07.560Z,10.02
2023-05-08T16:10:34.481Z,10.30
2023-05-08T16:13:01.235Z,9.77
2023-05-08T16:15:27.802Z,10.13
2023-05-08T16:17:54.587Z,9.30
2023-05-08T16:20:21.360Z,10.15
2023-05-08T16:22:47.923Z,9.10
2023-05-08T16:25:14.835Z,9.82
2023-05-08T16:27:41.566Z,9.00
2023-05-08T16:30:08.763Z,10.35
2023-05-08T16:32:35.348Z,10.10
2023-05-08T16:35:01.985Z,9.52
2023-05-08T16:37:28.578Z,9.75
2023-05-08T16:39:55.234Z,9.02
2023-05-08T16:42:21.968Z,9.45
2023-05-08T16:44:48.573Z,9.48
2023-05-08T16:47:15.218Z,7.30
2023-05-08T16:49:41.956Z,8.52
2023-05-08T16:52:08.558Z,9.23
2023-05-08T16:54:35.221Z,8.18
2023-05-08T16:57:01.898Z,7.28
2023-05-08T16:59:28.822Z,8.73
2023-05-08T17:01:55.386Z,8.02
2023-05-08T17:04:22.049Z,7.97
2023-05-08T17:06:48.740Z,6.95
2023-05-08T17:09:16.493Z,7.88
2023-05-08T17:11:43.221Z,7.30
2023-05-08T17:14:09.850Z,7.55
2023-05-08T17:16:36.605Z,6.95
2023-05-08T17:19:03.288Z,8.02
2023-05-08T17:21:31.962Z,7.90
2023-05-08T17:24:01.874Z,8.45
2023-05-08T17:26:32.424Z,8.15
2023-05-08T17:28:59.303Z,7.18
2023-05-08T17:31:25.936Z,8.45
2023-05-08T17:33:52.592Z,7.43
2023-05-08T17:36:19.173Z,7.13
2023-05-08T17:38:47.171Z,7.72
2023-05-08T17:41:14.052Z,7.78
2023-05-08T17:43:41.015Z,7.75
2023-05-08T17:46:07.852Z,7.30
2023-05-08T17:48:34.896Z,7.53
2023-05-08T17:51:02.729Z,6.85
2023-05-08T17:53:30.830Z,7.25
2023-05-08T17:55:58.058Z,7.70
2023-05-08T17:58:25.088Z,6.80
2023-05-08T18:00:52.048Z,7.18
2023-05-08T18:03:18.750Z,7.53
2023-05-08T18:05:45.695Z,7.65
2023-05-08T18:08:12.250Z,7.60
2023-05-08T18:10:39.459Z,6.60
2023-05-08T18:13:06.200Z,7.85
2023-05-08T18:15:36.017Z,6.65
2023-05-08T18:18:02.988Z,7.20
2023-05-08T18:20:29.662Z,6.97
2023-05-08T18:22:56.210Z,6.38
2023-05-08T18:25:22.759Z,7.32
2023-05-08T18:27:50.562Z,6.95
2023-05-08T18:30:17.244Z,6.45
2023-05-08T18:32:43.920Z,6.50
2023-05-08T18:35:11.044Z,6.63
2023-05-08T18:37:37.837Z,7.05
2023-05-08T18:40:05.128Z,7.88
2023-05-08T18:42:31.650Z,6.82
2023-05-08T18:45:00.469Z,6.20
2023-05-08T18:47:27.083Z,7.05
2023-05-08T18:49:53.900Z,7.82
2023-05-08T18:52:20.535Z,7.28
2023-05-08T18:54:47.180Z,7.50
2023-05-08T18:57:13.783Z,7.55
2023-05-08T18:59:40.386Z,7.80
2023-05-08T19:02:06.983Z,8.43
2023-05-08T19:04:33.562Z,7.13
2023-05-08T19:07:00.838Z,7.05
2023-05-08T19:09:27.395Z,7.43
2023-05-08T19:11:55.007Z,7.88
2023-05-08T19:14:21.675Z,7.07
2023-05-08T19:16:48.218Z,7.53
2023-05-08T19:19:14.848Z,7.05
2023-05-08T19:21:41.350Z,7.07
2023-05-08T19:24:11.780Z,6.50
2023-05-08T19:26:38.470Z,6.03
2023-05-08T19:29:05.033Z,6.35
2023-05-08T19:31:31.701Z,6.53
2023-05-08T19:33:58.402Z,5.53
2023-05-08T19:36:25.023Z,6.07
2023-05-08T19:38:51.769Z,6.78
2023-05-08T19:41:18.458Z,6.95
2023-05-08T19:43:45.045Z,5.28
2023-05-08T19:46:11.954Z,6.13
2023-05-08T19:48:38.496Z,5.65
2023-05-08T19:51:09.616Z,6.55
2023-05-08T19:53:36.500Z,6.70
2023-05-08T19:56:03.278Z,6.25
2023-05-08T19:58:29.845Z,5.78
2023-05-08T20:00:56.556Z,6.78
2023-05-08T20:03:23.491Z,6.22
2023-05-08T20:05:53.225Z,6.28
2023-05-08T20:08:20.065Z,6.68
2023-05-08T20:10:49.509Z,7.63
2023-05-08T20:13:17.433Z,7.15
2023-05-08T20:15:44.415Z,8.60
2023-05-08T20:18:11.006Z,6.93
2023-05-08T20:20:37.735Z,7.25
2023-05-08T20:23:04.549Z,7.50
2023-05-08T20:25:31.207Z,7.28
2023-05-08T20:27:57.874Z,7.13
2023-05-08T20:30:24.550Z,7.45
2023-05-08T20:32:51.239Z,7.72
2023-05-08T20:35:17.984Z,7.70
2023-05-08T20:37:46.249Z,7.47
2023-05-08T20:40:14.863Z,7.72
2023-05-08T20:42:41.678Z,8.95
2023-05-08T20:45:10.640Z,7.90
2023-05-08T20:47:37.423Z,7.10
2023-05-08T20:50:04.536Z,6.57
2023-05-08T20:52:32.340Z,8.10
2023-05-08T20:54:59.294Z,7.70
2023-05-08T20:57:26.182Z,7.47
2023-05-08T20:59:52.842Z,7.18
2023-05-08T21:02:19.572Z,7.57
2023-05-08T21:04:46.218Z,7.78
2023-05-08T21:07:12.976Z,7.50
2023-05-08T21:09:39.795Z,7.28
2023-05-08T21:12:06.783Z,6.78
2023-05-08T21:14:35.481Z,7.43
2023-05-08T21:17:02.120Z,7.88
2023-05-08T21:19:30.920Z,7.72
2023-05-08T21:21:57.796Z,7.97
2023-05-08T21:24:25.647Z,7.45
2023-05-08T21:26:53.408Z,7.10
2023-05-08T21:29:20.157Z,7.80
2023-05-08T21:31:46.945Z,8.63
2023-05-08T21:34:14.833Z,6.85
2023-05-08T21:36:41.830Z,8.52
2023-05-08T21:39:08.874Z,8.20
2023-05-08T21:41:35.646Z,8.77
2023-05-08T21:44:02.329Z,7.75
2023-05-08T21:46:29.163Z,7.65
2023-05-08T21:48:55.763Z,8.48
2023-05-08T21:51:22.361Z,7.95
2023-05-08T21:53:49.213Z,7.68
2023-05-08T21:56:16.641Z,7.88
2023-05-08T21:58:43.201Z,7.63
2023-05-08T22:01:10.154Z,7.82
2023-05-08T22:03:37.038Z,7.80
2023-05-08T22:06:03.934Z,7.72
2023-05-08T22:08:30.640Z,8.27
2023-05-08T22:10:57.403Z,8.65
2023-05-08T22:13:23.992Z,9.43
2023-05-08T22:15:50.854Z,10.43
2023-05-08T22:18:18.033Z,9.00
2023-05-08T22:20:44.899Z,8.50
2023-05-08T22:23:11.446Z,7.80
2023-05-08T22:25:38.177Z,10.02
2023-05-08T22:28:04.869Z,9.38
2023-05-08T22:30:31.544Z,8.77
2023-05-08T22:32:58.287Z,8.95
2023-05-08T22:35:27.317Z,7.95
2023-05-08T22:37:54.656Z,9.68
2023-05-08T22:40:22.144Z,9.43
2023-05-08T22:42:51.701Z,9.07
2023-05-08T22:45:18.566Z,9.45
2023-05-08T22:47:45.740Z,8.70
2023-05-08T22:50:12.456Z,8.70
2023-05-08T22:52:39.750Z,9.60
2023-05-08T22:55:06.984Z,9.30
2023-05-08T22:57:33.797Z,10.02
2023-05-08T23:00:00.555Z,10.73
2023-05-08T23:02:33.896Z,9.30
2023-05-08T23:05:01.892Z,9.70
2023-05-08T23:07:29.103Z,9.27
2023-05-08T23:09:55.811Z,9.38
2023-05-08T23:12:22.384Z,10.43
2023-05-08T23:14:48.901Z,10.55
2023-05-08T23:17:15.543Z,10.15
2023-05-08T23:19:42.424Z,10.23
2023-05-08T23:22:09.445Z,9.18
2023-05-08T23:24:36.473Z,9.77
2023-05-08T23:27:03.398Z,10.68
2023-05-08T23:29:30.225Z,9.82
2023-05-08T23:31:56.938Z,10.20
2023-05-08T23:34:23.553Z,10.75
2023-05-08T23:36:50.164Z,10.07
2023-05-08T23:39:16.910Z,10.75
2023-05-08T23:41:43.581Z,10.80
2023-05-08T23:44:10.462Z,10.85
2023-05-08T23:46:37.118Z,10.23
2023-05-08T23:49:05.433Z,9.13
2023-05-08T23:51:32.540Z,10.55
2023-05-08T23:53:59.166Z,10.30
2023-05-08T23:56:26.826Z,10.40
2023-05-08T23:58:53.431Z,10.52
